Time;durP1;ratioP1;P1;durP2;ratioP2;P2;SDS_P1;SDS_P2;PMS_P1;PMS_P2;Temp;Humidity;BMP_temperature;BMP_pressure;BME280_temperature;BME280_humidity;BME280_pressure;Samples;Min_cycle;Max_cycle;Signal;HPM_P1;HPM_P2
2021/05/21 00:01:46;;;;;;;1.00;0.90;;;14.60;99.90;;;;;;5027154;28;20981;-84
2021/05/21 00:04:14;;;;;;;1.10;1.00;;;14.60;99.90;;;;;;5029368;28;20457;-83
2021/05/21 00:06:42;;;;;;;1.17;1.07;;;14.60;99.90;;;;;;5025659;28;20449;-81
2021/05/21 00:09:10;;;;;;;2.80;1.00;;;14.60;99.90;;;;;;5029547;28;20527;-82
2021/05/21 00:11:38;;;;;;;0.90;0.90;;;14.60;99.90;;;;;;5031004;28;20457;-80
2021/05/21 00:14:06;;;;;;;1.10;1.00;;;14.50;99.90;;;;;;5027921;28;20464;-81
2021/05/21 00:16:34;;;;;;;1.00;1.00;;;14.50;99.90;;;;;;5030359;28;20444;-82
2021/05/21 00:19:01;;;;;;;0.97;0.90;;;14.30;99.90;;;;;;5027073;28;20460;-81
2021/05/21 00:21:29;;;;;;;0.90;0.90;;;14.30;99.90;;;;;;5028019;28;20469;-82
2021/05/21 00:23:57;;;;;;;0.90;0.87;;;14.30;99.90;;;;;;5029022;28;20540;-82
2021/05/21 00:26:24;;;;;;;2.77;0.97;;;14.30;99.90;;;;;;5030968;28;20460;-80
2021/05/21 00:28:53;;;;;;;1.53;1.00;;;14.20;99.90;;;;;;5027039;28;20461;-78
2021/05/21 00:31:20;;;;;;;1.00;0.90;;;14.20;99.90;;;;;;5028003;28;22146;-82
2021/05/21 00:33:49;;;;;;;0.77;0.77;;;14.10;99.90;;;;;;5063244;28;20536;-82
2021/05/21 00:36:16;;;;;;;1.13;0.87;;;14.10;99.90;;;;;;5031747;28;20465;-79
2021/05/21 00:38:44;;;;;;;1.10;1.00;;;13.90;99.90;;;;;;5026159;28;20464;-80
2021/05/21 00:41:12;;;;;;;0.90;0.90;;;13.90;99.90;;;;;;5029774;28;20449;-82
2021/05/21 00:43:39;;;;;;;1.37;0.80;;;14.10;99.90;;;;;;5029985;28;20494;-85
2021/05/21 00:46:08;;;;;;;1.00;0.90;;;14.20;99.90;;;;;;5027731;28;20462;-81
2021/05/21 00:48:35;;;;;;;0.80;0.80;;;14.30;99.90;;;;;;5031378;28;20450;-82
2021/05/21 00:51:03;;;;;;;0.80;0.80;;;14.30;99.90;;;;;;5031583;28;20844;-81
2021/05/21 00:53:32;;;;;;;0.90;0.80;;;14.40;99.90;;;;;;5030181;28;20531;-83
2021/05/21 00:56:00;;;;;;;1.43;0.93;;;14.40;99.90;;;;;;5032337;28;20896;-81
2021/05/21 00:58:28;;;;;;;1.03;0.93;;;14.50;99.90;;;;;;5028609;28;20458;-80
2021/05/21 01:00:56;;;;;;;9.40;1.03;;;14.50;99.90;;;;;;5025625;28;20457;-81
2021/05/21 01:03:25;;;;;;;0.80;0.80;;;14.50;99.90;;;;;;5029903;28;20633;-81
2021/05/21 01:05:52;;;;;;;1.10;0.80;;;14.50;99.90;;;;;;5029204;28;20485;-81
2021/05/21 01:08:20;;;;;;;0.83;0.80;;;14.50;99.90;;;;;;5028349;28;20454;-80
2021/05/21 01:11:03;;;;;;;1.17;0.83;;;14.50;99.90;;;;;;5028370;28;20989;-80
2021/05/21 01:13:32;;;;;;;1.10;0.80;;;14.40;99.90;;;;;;5062310;28;20482;-81
2021/05/21 01:16:00;;;;;;;0.83;0.83;;;14.50;99.90;;;;;;5029451;28;20444;-79
2021/05/21 01:18:29;;;;;;;0.80;0.80;;;14.60;99.90;;;;;;5026383;28;20444;-81
2021/05/21 01:20:57;;;;;;;0.87;0.87;;;14.60;99.90;;;;;;5030869;28;20456;-81
2021/05/21 01:23:25;;;;;;;1.90;0.83;;;14.60;99.90;;;;;;5030730;28;20516;-82
2021/05/21 01:25:53;;;;;;;0.90;0.90;;;14.60;99.90;;;;;;5026654;28;20458;-79
2021/05/21 01:28:21;;;;;;;1.10;0.90;;;14.50;99.90;;;;;;5029076;28;20458;-80
2021/05/21 01:30:49;;;;;;;1.03;1.00;;;14.50;99.90;;;;;;5031180;28;20461;-80
2021/05/21 01:33:17;;;;;;;0.80;0.80;;;14.50;99.90;;;;;;5023940;28;20497;-80
2021/05/21 01:35:45;;;;;;;0.70;0.70;;;14.50;99.90;;;;;;5028618;28;21379;-81
2021/05/21 01:38:14;;;;;;;1.27;0.83;;;14.40;99.90;;;;;;5028961;28;20455;-82
2021/05/21 01:40:44;;;;;;;1.00;1.00;;;14.30;99.90;;;;;;5024264;28;20868;-82
2021/05/21 01:43:12;;;;;;;1.53;1.00;;;14.40;99.90;;;;;;5029053;28;20517;-80
2021/05/21 01:45:40;;;;;;;1.37;0.80;;;14.40;99.90;;;;;;5025296;28;22383;-81
2021/05/21 01:48:10;;;;;;;0.80;0.80;;;14.50;99.90;;;;;;5022434;28;20466;-80
2021/05/21 01:50:38;;;;;;;1.10;1.10;;;14.40;99.90;;;;;;5027001;28;20454;-79
2021/05/21 01:53:06;;;;;;;0.80;0.80;;;14.20;99.90;;;;;;5029598;28;20541;-80
2021/05/21 01:55:34;;;;;;;3.90;0.90;;;14.10;99.90;;;;;;5026300;28;20437;-82
2021/05/21 01:58:03;;;;;;;0.93;0.83;;;14.10;99.90;;;;;;5028668;28;20450;-84
2021/05/21 02:00:31;;;;;;;0.90;0.80;;;14.10;99.90;;;;;;5028336;28;20911;-81
2021/05/21 02:02:58;;;;;;;0.73;0.73;;;13.90;99.90;;;;;;5026879;28;20476;-82
2021/05/21 02:05:26;;;;;;;0.73;0.73;;;14.00;99.90;;;;;;5031366;28;20781;-78
2021/05/21 02:07:53;;;;;;;0.70;0.70;;;13.90;99.90;;;;;;5028322;28;20460;-81
2021/05/21 02:10:21;;;;;;;2.73;0.90;;;13.90;99.90;;;;;;5030312;28;20465;-83
2021/05/21 02:12:49;;;;;;;0.80;0.80;;;13.80;99.90;;;;;;5027741;28;20466;-81
2021/05/21 02:15:17;;;;;;;1.07;0.80;;;13.80;99.90;;;;;;5026652;28;20457;-83
2021/05/21 02:17:45;;;;;;;0.70;0.63;;;13.90;99.90;;;;;;5026581;28;20517;-80
2021/05/21 02:20:13;;;;;;;0.90;0.80;;;13.90;99.90;;;;;;5026049;28;20999;-80
2021/05/21 02:22:41;;;;;;;1.53;1.10;;;13.80;99.90;;;;;;5026733;28;20578;-83
2021/05/21 02:25:11;;;;;;;1.63;1.10;;;13.80;99.90;;;;;;5028737;28;20458;-81
2021/05/21 02:27:39;;;;;;;0.80;0.80;;;13.70;99.90;;;;;;5029974;28;20472;-77
2021/05/21 02:30:10;;;;;;;1.90;0.70;;;13.80;99.90;;;;;;5023174;28;20461;-81
2021/05/21 02:32:38;;;;;;;0.83;0.83;;;13.90;99.90;;;;;;5027168;28;21047;-84
2021/05/21 02:35:07;;;;;;;1.43;0.90;;;13.90;99.90;;;;;;5028358;28;21002;-81
2021/05/21 02:37:36;;;;;;;0.70;0.70;;;13.90;99.90;;;;;;5031120;28;20476;-81
2021/05/21 02:40:05;;;;;;;0.80;0.80;;;14.00;99.90;;;;;;5024881;28;20448;-82
2021/05/21 02:42:33;;;;;;;0.90;0.90;;;14.00;99.90;;;;;;5028413;28;20498;-83
2021/05/21 02:45:01;;;;;;;0.87;0.87;;;14.00;99.90;;;;;;5028171;28;20457;-80
2021/05/21 02:47:31;;;;;;;0.90;0.90;;;13.90;99.90;;;;;;5027322;28;20462;-80
2021/05/21 02:49:59;;;;;;;2.03;0.80;;;14.00;99.90;;;;;;5024241;28;20471;-79
2021/05/21 02:52:27;;;;;;;1.63;1.00;;;13.90;99.90;;;;;;5028582;28;20477;-83
2021/05/21 02:54:56;;;;;;;0.80;0.80;;;13.80;99.90;;;;;;5034209;28;20493;-80
2021/05/21 02:57:24;;;;;;;1.17;0.90;;;13.70;99.90;;;;;;5065933;28;20476;-82
2021/05/21 02:59:53;;;;;;;0.70;0.70;;;13.70;99.90;;;;;;5024327;28;20469;-79
2021/05/21 03:02:22;;;;;;;0.83;0.83;;;13.80;99.90;;;;;;5028620;28;20485;-80
2021/05/21 03:04:52;;;;;;;0.80;0.80;;;13.70;99.90;;;;;;5029087;28;20448;-80
2021/05/21 03:07:20;;;;;;;0.87;0.87;;;13.80;99.90;;;;;;5033555;28;20459;-80
2021/05/21 03:09:47;;;;;;;0.70;0.70;;;13.60;99.90;;;;;;5027735;28;20563;-82
2021/05/21 03:12:15;;;;;;;1.20;0.80;;;13.70;99.90;;;;;;5029023;28;20481;-82
2021/05/21 03:14:43;;;;;;;1.30;0.77;;;13.70;99.90;;;;;;5033135;28;20502;-81
2021/05/21 03:17:11;;;;;;;1.17;0.70;;;13.80;99.90;;;;;;5033535;28;20445;-81
2021/05/21 03:19:38;;;;;;;0.67;0.67;;;13.90;99.90;;;;;;5030458;28;20489;-81
2021/05/21 03:22:07;;;;;;;0.97;0.80;;;14.00;99.90;;;;;;5041302;28;20481;-81
2021/05/21 03:24:35;;;;;;;0.60;0.60;;;14.00;99.90;;;;;;5034207;28;20992;-81
2021/05/21 03:27:03;;;;;;;1.17;0.80;;;14.10;99.90;;;;;;5029958;28;20832;-79
2021/05/21 03:29:31;;;;;;;1.10;0.97;;;14.20;99.90;;;;;;5030156;28;20480;-81
2021/05/21 03:31:58;;;;;;;0.80;0.80;;;14.10;99.90;;;;;;5031860;28;20481;-82
2021/05/21 03:34:26;;;;;;;2.13;0.73;;;14.00;99.90;;;;;;5033402;28;20508;-81
2021/05/21 03:36:54;;;;;;;0.77;0.77;;;13.90;99.90;;;;;;5033317;28;20448;-80
2021/05/21 03:39:22;;;;;;;0.70;0.70;;;13.70;99.90;;;;;;5030160;28;20525;-81
2021/05/21 03:41:50;;;;;;;0.70;0.70;;;13.70;99.90;;;;;;5030562;28;20461;-81
2021/05/21 03:44:17;;;;;;;1.27;0.77;;;13.60;99.90;;;;;;5029492;28;20469;-82
2021/05/21 03:46:45;;;;;;;0.70;0.70;;;13.70;99.90;;;;;;5028887;28;20473;-81
2021/05/21 03:49:15;;;;;;;1.10;0.77;;;13.70;99.90;;;;;;5031401;28;20836;-81
2021/05/21 03:51:43;;;;;;;1.13;0.73;;;13.60;99.90;;;;;;5030362;28;20469;-82
2021/05/21 03:54:11;;;;;;;0.77;0.73;;;13.50;99.90;;;;;;5030114;28;20458;-80
2021/05/21 03:56:39;;;;;;;0.77;0.77;;;13.60;99.90;;;;;;5031008;28;20456;-81
2021/05/21 03:59:07;;;;;;;1.17;0.80;;;13.60;99.90;;;;;;5044016;28;20462;-80
2021/05/21 04:01:35;;;;;;;0.70;0.70;;;13.60;99.90;;;;;;5030393;28;20525;-81
2021/05/21 04:04:03;;;;;;;0.90;0.90;;;13.60;99.90;;;;;;5024306;28;20478;-80
2021/05/21 04:06:31;;;;;;;0.63;0.63;;;13.60;99.90;;;;;;5031409;28;20453;-83
2021/05/21 04:08:59;;;;;;;0.90;0.90;;;13.60;99.90;;;;;;5031642;28;20452;-81
2021/05/21 04:11:27;;;;;;;0.93;0.70;;;13.70;99.90;;;;;;5032999;28;20507;-81
2021/05/21 04:13:55;;;;;;;1.00;0.90;;;13.60;99.90;;;;;;5029939;28;20470;-82
2021/05/21 04:16:23;;;;;;;0.70;0.67;;;13.70;99.90;;;;;;5029063;28;20470;-79
2021/05/21 04:18:50;;;;;;;5.03;1.17;;;13.70;99.90;;;;;;5064071;28;20485;-81
2021/05/21 04:21:18;;;;;;;0.87;0.60;;;13.70;99.90;;;;;;5031421;28;20466;-80
2021/05/21 04:23:46;;;;;;;1.00;0.80;;;13.70;99.90;;;;;;5029565;28;20485;-82
2021/05/21 04:26:14;;;;;;;1.10;0.60;;;13.70;99.90;;;;;;5060790;28;20499;-81
2021/05/21 04:28:47;;;;;;;1.77;0.83;;;13.70;99.90;;;;;;5060448;28;21138;-81
2021/05/21 04:31:16;;;;;;;1.10;0.70;;;13.80;99.90;;;;;;5023819;28;20469;-82
2021/05/21 04:33:44;;;;;;;0.90;0.70;;;13.80;99.90;;;;;;5027017;28;20488;-80
2021/05/21 04:36:12;;;;;;;1.33;0.87;;;13.90;99.90;;;;;;5028749;28;20466;-79
2021/05/21 04:38:39;;;;;;;0.80;0.80;;;13.90;99.90;;;;;;5024319;28;20493;-79
2021/05/21 04:41:07;;;;;;;0.70;0.70;;;13.80;99.90;;;;;;5026967;28;21002;-80
2021/05/21 04:43:35;;;;;;;0.70;0.70;;;13.70;99.90;;;;;;5028949;28;20567;-80
2021/05/21 04:46:04;;;;;;;0.97;0.70;;;13.70;99.90;;;;;;5028095;28;20847;-80
2021/05/21 04:48:33;;;;;;;3.33;1.07;;;13.70;99.90;;;;;;5024469;28;20464;-79
2021/05/21 04:51:01;;;;;;;0.60;0.60;;;13.70;99.90;;;;;;5032118;28;20479;-81
2021/05/21 04:53:28;;;;;;;1.00;0.90;;;13.70;99.90;;;;;;5032118;28;20466;-81
2021/05/21 04:55:56;;;;;;;0.80;0.80;;;13.50;99.90;;;;;;5042971;28;20463;-81
2021/05/21 04:58:24;;;;;;;1.33;0.63;;;13.80;99.90;;;;;;5026758;28;20489;-79
2021/05/21 05:00:52;;;;;;;1.47;0.70;;;13.70;99.90;;;;;;5024497;28;20815;-79
2021/05/21 05:03:21;;;;;;;0.70;0.70;;;13.80;99.90;;;;;;5022921;28;20480;-80
2021/05/21 05:05:50;;;;;;;0.80;0.70;;;14.00;99.90;;;;;;5019418;28;20909;-79
2021/05/21 05:08:17;;;;;;;1.30;0.80;;;13.90;99.90;;;;;;5022630;28;20449;-78
2021/05/21 05:10:46;;;;;;;0.80;0.80;;;13.90;99.90;;;;;;5023195;28;20594;-79
2021/05/21 05:13:14;;;;;;;1.60;0.60;;;13.90;99.90;;;;;;5025013;28;20479;-81
2021/05/21 05:15:42;;;;;;;1.03;0.80;;;13.80;99.90;;;;;;5027986;28;20499;-79
2021/05/21 05:18:11;;;;;;;0.80;0.80;;;13.40;99.90;;;;;;5031692;28;20958;-79
2021/05/21 05:20:39;;;;;;;0.77;0.77;;;13.10;99.90;;;;;;5032344;28;20471;-79
2021/05/21 05:23:10;;;;;;;0.73;0.73;;;13.30;99.90;;;;;;5031810;28;20425;-77
2021/05/21 05:25:41;;;;;;;0.60;0.60;;;13.40;99.90;;;;;;5031839;28;20201;-78
2021/05/21 05:28:09;;;;;;;0.70;0.70;;;13.30;99.90;;;;;;5059288;28;20472;-81
2021/05/21 05:30:37;;;;;;;0.70;0.63;;;13.50;99.90;;;;;;5032292;28;20506;-79
2021/05/21 05:33:05;;;;;;;0.80;0.80;;;13.60;99.90;;;;;;5031944;28;20483;-81
2021/05/21 05:35:33;;;;;;;0.90;0.80;;;13.70;99.90;;;;;;5030699;28;20468;-78
2021/05/21 05:38:01;;;;;;;0.60;0.60;;;13.70;99.90;;;;;;5030077;28;20195;-77
2021/05/21 05:40:31;;;;;;;0.67;0.67;;;13.80;99.90;;;;;;5030565;28;20491;-80
2021/05/21 05:42:58;;;;;;;0.60;0.60;;;13.80;99.90;;;;;;5024747;28;20496;-81
2021/05/21 05:45:26;;;;;;;0.90;0.70;;;13.80;99.90;;;;;;5023858;28;20457;-79
2021/05/21 05:47:54;;;;;;;0.70;0.70;;;13.90;99.90;;;;;;5026844;28;20455;-79
2021/05/21 05:50:22;;;;;;;1.47;0.67;;;14.00;99.90;;;;;;5024949;28;20455;-81
2021/05/21 05:52:49;;;;;;;1.00;0.70;;;14.00;99.90;;;;;;5027523;28;20474;-80
2021/05/21 05:55:17;;;;;;;0.90;0.60;;;14.00;99.90;;;;;;5032327;28;20446;-77
2021/05/21 05:57:46;;;;;;;1.00;0.70;;;14.00;99.90;;;;;;5030154;28;20460;-80
2021/05/21 06:00:14;;;;;;;0.60;0.60;;;13.90;99.90;;;;;;5023769;28;20460;-80
2021/05/21 06:02:42;;;;;;;1.33;0.80;;;14.00;99.90;;;;;;5025155;28;21076;-79
2021/05/21 06:05:10;;;;;;;1.27;0.63;;;14.10;99.90;;;;;;5024974;28;20480;-81
2021/05/21 06:07:38;;;;;;;0.60;0.60;;;14.00;99.90;;;;;;5039585;28;20471;-80
2021/05/21 06:10:06;;;;;;;0.77;0.67;;;13.90;99.90;;;;;;5019995;28;20478;-80
2021/05/21 06:12:34;;;;;;;0.90;0.60;;;14.00;99.90;;;;;;5024312;28;20476;-80
2021/05/21 06:15:03;;;;;;;1.57;0.70;;;13.80;99.90;;;;;;5020086;28;20460;-81
2021/05/21 06:17:31;;;;;;;0.60;0.60;;;13.90;99.90;;;;;;5024058;28;20952;-81
2021/05/21 06:19:58;;;;;;;0.70;0.60;;;13.90;99.90;;;;;;5033213;28;20570;-79
2021/05/21 06:22:26;;;;;;;1.50;0.70;;;13.80;99.90;;;;;;5021473;28;20482;-80
2021/05/21 06:25:04;;;;;;;0.60;0.57;;;13.70;99.90;;;;;;5020170;28;21057;-80
2021/05/21 06:27:32;;;;;;;1.00;0.77;;;14.00;99.90;;;;;;5021972;28;20458;-79
2021/05/21 06:30:01;;;;;;;1.63;0.70;;;14.20;99.90;;;;;;5022366;28;20502;-76
2021/05/21 06:32:31;;;;;;;0.80;0.70;;;14.20;99.90;;;;;;5022035;28;20477;-78
2021/05/21 06:34:59;;;;;;;1.07;0.90;;;14.30;99.90;;;;;;5023208;28;20940;-80
2021/05/21 06:37:29;;;;;;;0.70;0.67;;;14.20;99.90;;;;;;5026045;28;20824;-79
2021/05/21 06:40:09;;;;;;;0.83;0.70;;;14.10;99.90;;;;;;5023450;28;20471;-80
2021/05/21 06:42:37;;;;;;;0.77;0.77;;;14.30;99.90;;;;;;5024847;28;20879;-80
2021/05/21 06:45:06;;;;;;;1.10;0.60;;;14.20;99.90;;;;;;5019464;28;20490;-80
2021/05/21 06:47:35;;;;;;;1.40;0.60;;;14.10;99.90;;;;;;5019288;28;21035;-80
2021/05/21 06:50:04;;;;;;;0.70;0.70;;;14.10;99.90;;;;;;5020763;28;21122;-79
2021/05/21 06:52:32;;;;;;;2.10;0.60;;;14.20;99.90;;;;;;5022517;28;20492;-79
2021/05/21 06:55:00;;;;;;;2.15;0.70;;;14.20;99.90;;;;;;5019532;28;20445;-76
2021/05/21 06:57:27;;;;;;;1.87;0.63;;;14.00;99.90;;;;;;5035719;28;20205;-76
2021/05/21 06:59:57;;;;;;;0.80;0.80;;;14.20;99.90;;;;;;5022390;28;20473;-81
2021/05/21 07:02:26;;;;;;;0.80;0.80;;;14.20;99.90;;;;;;5022509;28;20477;-79
2021/05/21 07:04:56;;;;;;;0.60;0.57;;;14.10;99.90;;;;;;5021296;28;20556;-80
2021/05/21 07:07:25;;;;;;;0.60;0.60;;;14.10;99.90;;;;;;5034665;28;20560;-78
2021/05/21 07:09:53;;;;;;;1.80;0.80;;;14.20;99.90;;;;;;5021074;28;21062;-79
2021/05/21 07:12:21;;;;;;;0.70;0.70;;;14.40;99.90;;;;;;5018183;28;20489;-80
2021/05/21 07:14:49;;;;;;;1.77;0.70;;;14.30;99.90;;;;;;5025369;28;20535;-79
2021/05/21 07:17:17;;;;;;;1.53;0.70;;;14.40;99.90;;;;;;5023943;28;20466;-79
2021/05/21 07:19:44;;;;;;;0.60;0.60;;;14.30;99.90;;;;;;5023135;28;20767;-80
2021/05/21 07:22:13;;;;;;;1.53;0.60;;;14.30;99.90;;;;;;5021736;28;20499;-80
2021/05/21 07:24:41;;;;;;;0.67;0.60;;;14.50;99.90;;;;;;5024628;28;20523;-79
2021/05/21 07:27:08;;;;;;;0.70;0.70;;;14.50;99.90;;;;;;5022943;28;20451;-80
2021/05/21 07:29:36;;;;;;;1.03;0.93;;;14.50;99.90;;;;;;5027715;28;20450;-79
2021/05/21 07:32:04;;;;;;;2.93;0.80;;;14.60;99.90;;;;;;5021217;28;20488;-79
2021/05/21 07:34:32;;;;;;;0.70;0.70;;;14.60;99.90;;;;;;5024758;28;20483;-80
2021/05/21 07:37:00;;;;;;;0.60;0.60;;;14.60;99.90;;;;;;5020761;28;20463;-79
2021/05/21 07:39:28;;;;;;;1.13;0.70;;;14.60;99.90;;;;;;5021552;28;20457;-79
2021/05/21 07:41:58;;;;;;;0.70;0.70;;;14.60;99.90;;;;;;5035998;28;20473;-81
2021/05/21 07:44:26;;;;;;;0.60;0.60;;;14.50;99.90;;;;;;5026711;28;20477;-77
2021/05/21 07:46:53;;;;;;;1.73;0.70;;;14.30;99.90;;;;;;5029253;28;20490;-77
2021/05/21 07:49:25;;;;;;;1.50;0.70;;;14.50;99.90;;;;;;5030676;28;21028;-79
2021/05/21 07:51:54;;;;;;;1.10;0.60;;;14.70;99.90;;;;;;5025155;28;20514;-78
2021/05/21 07:54:22;;;;;;;1.50;0.70;;;14.70;99.90;;;;;;5024974;28;20533;-79
2021/05/21 07:56:50;;;;;;;0.90;0.90;;;14.70;99.90;;;;;;5026911;28;21003;-79
2021/05/21 07:59:18;;;;;;;1.30;0.90;;;14.60;99.90;;;;;;5028485;28;21140;-78
2021/05/21 08:01:46;;;;;;;1.90;0.70;;;14.60;99.90;;;;;;5025807;28;20491;-78
2021/05/21 08:04:14;;;;;;;0.90;0.60;;;14.60;99.90;;;;;;5027305;28;20479;-78
2021/05/21 08:06:42;;;;;;;0.97;0.90;;;14.70;99.90;;;;;;5023897;28;20551;-80
2021/05/21 08:09:10;;;;;;;0.80;0.80;;;14.70;99.90;;;;;;5024111;28;20547;-78
2021/05/21 08:11:39;;;;;;;1.27;0.70;;;14.90;99.90;;;;;;5029135;28;21006;-80
2021/05/21 08:14:09;;;;;;;1.67;0.73;;;15.00;99.90;;;;;;5030218;28;20488;-78
2021/05/21 08:16:37;;;;;;;0.60;0.60;;;15.10;99.90;;;;;;5029240;28;20469;-81
2021/05/21 08:19:06;;;;;;;0.60;0.60;;;15.10;99.90;;;;;;5054131;28;20462;-83
2021/05/21 08:21:34;;;;;;;0.60;0.60;;;15.00;99.90;;;;;;5026228;28;20453;-82
2021/05/21 08:24:03;;;;;;;2.17;0.70;;;14.90;99.90;;;;;;5040893;28;20509;-80
2021/05/21 08:26:31;;;;;;;1.07;0.70;;;15.00;99.90;;;;;;5023093;28;20929;-80
2021/05/21 08:28:59;;;;;;;0.77;0.70;;;15.00;99.90;;;;;;5026924;28;20471;-81
2021/05/21 08:31:28;;;;;;;0.60;0.60;;;14.90;99.90;;;;;;5030806;28;20452;-78
2021/05/21 08:33:55;;;;;;;0.90;0.90;;;15.10;99.90;;;;;;5026652;28;20474;-80
2021/05/21 08:36:23;;;;;;;1.10;0.70;;;14.90;99.90;;;;;;5026272;28;20467;-80
2021/05/21 08:38:52;;;;;;;0.90;0.90;;;14.80;99.90;;;;;;5020195;28;20466;-80
2021/05/21 08:41:24;;;;;;;0.70;0.70;;;14.90;99.90;;;;;;5027723;28;20963;-80
2021/05/21 08:43:53;;;;;;;1.00;0.87;;;15.10;99.90;;;;;;5029896;28;20529;-79
2021/05/21 08:46:22;;;;;;;1.00;0.70;;;15.00;99.90;;;;;;5021620;28;20489;-80
2021/05/21 08:48:51;;;;;;;1.27;0.67;;;14.90;99.90;;;;;;5056253;28;20832;-79
2021/05/21 08:51:19;;;;;;;2.97;0.63;;;14.80;99.90;;;;;;5022257;28;20469;-81
2021/05/21 08:53:53;;;;;;;4.37;0.70;;;14.60;99.90;;;;;;5023311;28;20576;-80
2021/05/21 08:56:21;;;;;;;0.67;0.67;;;14.70;99.90;;;;;;5023986;28;21190;-81
2021/05/21 08:58:49;;;;;;;1.93;0.70;;;14.70;99.90;;;;;;5025796;28;20493;-79
2021/05/21 09:01:17;;;;;;;0.57;0.57;;;14.70;99.90;;;;;;5024578;28;20473;-79
2021/05/21 09:03:48;;;;;;;1.53;0.67;;;14.70;99.90;;;;;;5023364;28;20481;-79
2021/05/21 09:06:20;;;;;;;0.67;0.60;;;14.70;99.90;;;;;;5027443;28;20475;-80
2021/05/21 09:08:49;;;;;;;2.30;0.60;;;14.80;99.90;;;;;;5024896;28;20462;-79
2021/05/21 09:11:30;;;;;;;0.80;0.80;;;14.70;99.90;;;;;;5025356;28;20464;-79
2021/05/21 09:14:03;;;;;;;0.90;0.80;;;14.90;99.90;;;;;;5024350;28;20476;-81
2021/05/21 09:16:33;;;;;;;0.80;0.63;;;14.70;99.90;;;;;;5025662;28;20508;-79
2021/05/21 09:19:13;;;;;;;1.83;0.70;;;14.70;99.90;;;;;;5031709;28;20478;-81
2021/05/21 09:22:06;;;;;;;1.03;0.60;;;14.80;99.90;;;;;;5038058;28;20537;-79
2021/05/21 09:24:35;;;;;;;0.87;0.67;;;14.90;99.90;;;;;;5026769;28;20463;-80
2021/05/21 09:27:04;;;;;;;0.60;0.60;;;15.00;99.90;;;;;;5028789;28;21049;-80
2021/05/21 09:29:43;;;;;;;0.97;0.67;;;15.00;99.90;;;;;;5023104;28;20465;-79
2021/05/21 09:32:20;;;;;;;1.03;0.70;;;15.00;99.90;;;;;;5022146;28;20486;-80
2021/05/21 09:35:03;;;;;;;1.50;0.80;;;15.10;99.90;;;;;;5023405;28;20461;-79
2021/05/21 09:37:33;;;;;;;0.90;0.50;;;15.00;99.90;;;;;;5035352;28;20883;-83
2021/05/21 09:40:11;;;;;;;0.73;0.70;;;15.00;99.90;;;;;;5022216;28;20465;-80
2021/05/21 09:42:47;;;;;;;0.70;0.70;;;15.10;99.90;;;;;;5021881;28;20512;-81
2021/05/21 09:45:18;;;;;;;1.00;0.70;;;15.00;99.90;;;;;;5021683;28;20879;-80
2021/05/21 09:47:49;;;;;;;0.80;0.63;;;14.90;99.90;;;;;;5024112;28;20819;-80
2021/05/21 09:50:16;;;;;;;0.80;0.73;;;14.70;99.90;;;;;;5026834;28;21017;-81
2021/05/21 09:52:46;;;;;;;0.70;0.70;;;14.60;99.90;;;;;;5027451;28;20485;-79
2021/05/21 09:55:14;;;;;;;3.50;0.60;;;14.60;99.90;;;;;;5029506;28;20459;-81
2021/05/21 09:57:45;;;;;;;0.50;0.50;;;14.70;99.90;;;;;;5023889;28;20999;-82
2021/05/21 10:00:14;;;;;;;0.90;0.57;;;14.60;99.90;;;;;;5022919;28;20468;-79
2021/05/21 10:02:43;;;;;;;0.53;0.53;;;14.60;99.90;;;;;;5029925;28;20480;-80
2021/05/21 10:05:11;;;;;;;1.33;0.70;;;14.60;99.90;;;;;;5029516;28;20910;-79
2021/05/21 10:07:39;;;;;;;0.50;0.50;;;14.50;99.90;;;;;;5029390;28;20515;-79
2021/05/21 10:10:08;;;;;;;0.60;0.60;;;14.50;99.90;;;;;;5027965;28;20471;-81
2021/05/21 10:12:36;;;;;;;1.43;0.80;;;14.50;99.90;;;;;;5025022;28;20495;-80
2021/05/21 10:15:05;;;;;;;0.70;0.60;;;14.60;99.90;;;;;;5023049;28;20471;-82
2021/05/21 10:17:34;;;;;;;0.60;0.60;;;14.50;99.90;;;;;;5026967;28;20449;-81
2021/05/21 10:20:02;;;;;;;0.60;0.60;;;14.40;99.90;;;;;;5031271;28;20461;-81
2021/05/21 10:22:33;;;;;;;2.70;0.60;;;14.50;99.90;;;;;;5027126;28;20520;-81
2021/05/21 10:25:06;;;;;;;1.00;0.53;;;14.50;99.90;;;;;;5027765;28;20546;-81
2021/05/21 10:27:39;;;;;;;0.60;0.60;;;14.70;99.90;;;;;;5025500;28;20523;-80
2021/05/21 10:30:09;;;;;;;1.70;0.70;;;14.80;99.90;;;;;;5021103;28;20456;-80
2021/05/21 10:32:37;;;;;;;0.60;0.60;;;14.70;99.90;;;;;;5026385;28;20472;-81
2021/05/21 10:35:16;;;;;;;0.70;0.70;;;14.60;99.90;;;;;;5029811;28;20486;-81
2021/05/21 10:37:44;;;;;;;2.00;1.53;;;14.70;99.90;;;;;;5023737;28;20460;-80
2021/05/21 10:40:14;;;;;;;0.70;0.53;;;14.80;99.90;;;;;;5021045;28;20521;-80
2021/05/21 10:42:47;;;;;;;0.60;0.47;;;14.60;99.90;;;;;;5024168;28;20479;-80
2021/05/21 10:45:16;;;;;;;0.50;0.50;;;14.80;99.90;;;;;;5021814;28;20484;-80
2021/05/21 10:47:46;;;;;;;1.53;0.57;;;14.80;99.90;;;;;;5022507;28;20457;-80
2021/05/21 10:50:20;;;;;;;0.60;0.60;;;15.00;99.90;;;;;;5024416;28;20466;-80
2021/05/21 10:53:06;;;;;;;0.63;0.60;;;15.20;99.90;;;;;;5025208;28;20900;-80
2021/05/21 10:55:46;;;;;;;0.70;0.70;;;15.20;99.90;;;;;;5023212;28;20449;-81
2021/05/21 10:58:18;;;;;;;0.90;0.70;;;15.30;99.90;;;;;;5027118;28;21027;-80
2021/05/21 11:01:12;;;;;;;1.50;0.67;;;15.40;99.90;;;;;;5026234;28;20455;-80
2021/05/21 11:04:19;;;;;;;0.67;0.67;;;15.60;99.90;;;;;;5027824;28;20472;-81
2021/05/21 11:06:50;;;;;;;0.70;0.67;;;15.60;99.90;;;;;;5025036;28;20505;-81
2021/05/21 11:09:21;;;;;;;0.70;0.60;;;15.70;99.90;;;;;;5025797;28;20979;-82
2021/05/21 11:11:54;;;;;;;0.67;0.60;;;15.80;99.90;;;;;;5023141;28;20465;-84
2021/05/21 11:14:34;;;;;;;2.67;0.80;;;15.80;99.90;;;;;;5025785;28;20472;-81
2021/05/21 11:17:14;;;;;;;0.60;0.60;;;15.90;99.90;;;;;;5030059;28;20543;-83
2021/05/21 11:19:48;;;;;;;0.80;0.80;;;15.90;99.90;;;;;;5027776;28;20457;-83
2021/05/21 11:22:28;;;;;;;0.73;0.73;;;15.90;99.90;;;;;;5030658;28;20588;-82
2021/05/21 11:25:00;;;;;;;0.60;0.60;;;16.00;99.90;;;;;;5031188;28;20445;-82
2021/05/21 11:27:29;;;;;;;0.77;0.60;;;16.00;99.90;;;;;;5030526;28;20461;-81
2021/05/21 11:30:04;;;;;;;0.97;0.60;;;15.80;99.90;;;;;;5025774;28;20454;-81
2021/05/21 11:32:32;;;;;;;1.77;0.60;;;15.80;99.90;;;;;;5029073;28;20492;-82
2021/05/21 11:35:00;;;;;;;0.60;0.60;;;15.70;99.90;;;;;;5028586;28;20611;-82
2021/05/21 11:37:29;;;;;;;0.50;0.50;;;15.60;99.90;;;;;;5028489;28;20716;-83
2021/05/21 11:40:01;;;;;;;0.47;0.47;;;15.80;99.90;;;;;;5026497;28;20448;-79
2021/05/21 11:42:29;;;;;;;1.73;0.70;;;15.60;99.90;;;;;;5029591;28;20561;-80
2021/05/21 11:44:57;;;;;;;1.10;0.60;;;15.50;99.90;;;;;;5027912;28;20984;-81
2021/05/21 11:47:28;;;;;;;0.97;0.80;;;15.50;99.90;;;;;;5028241;28;20466;-81
2021/05/21 11:49:58;;;;;;;0.50;0.50;;;15.40;99.90;;;;;;5029327;28;20463;-80
2021/05/21 11:52:25;;;;;;;0.60;0.60;;;15.40;99.90;;;;;;5033989;28;21215;-81
2021/05/21 11:54:56;;;;;;;0.60;0.40;;;15.50;99.90;;;;;;5026551;28;20451;-81
2021/05/21 11:57:25;;;;;;;0.80;0.70;;;15.40;99.90;;;;;;5026824;28;20455;-80
2021/05/21 11:59:54;;;;;;;0.60;0.60;;;15.40;99.90;;;;;;5025257;28;20457;-80
2021/05/21 12:02:22;;;;;;;0.70;0.70;;;15.30;99.90;;;;;;5028021;28;20222;-82
2021/05/21 12:04:51;;;;;;;0.60;0.60;;;15.20;99.90;;;;;;5025938;28;20451;-81
2021/05/21 12:07:21;;;;;;;0.50;0.50;;;15.20;99.90;;;;;;5028191;28;20515;-81
2021/05/21 12:09:54;;;;;;;1.07;0.50;;;15.20;99.90;;;;;;5025781;28;20964;-81
2021/05/21 12:12:23;;;;;;;0.50;0.50;;;15.40;99.90;;;;;;5026834;28;20485;-82
2021/05/21 12:14:50;;;;;;;0.77;0.77;;;15.50;99.90;;;;;;5023823;28;20469;-81
2021/05/21 12:17:18;;;;;;;1.53;0.70;;;15.60;99.90;;;;;;5039018;28;20460;-81
2021/05/21 12:19:46;;;;;;;0.60;0.60;;;15.50;99.90;;;;;;5028545;28;20952;-80
2021/05/21 12:22:14;;;;;;;1.43;0.70;;;15.50;99.90;;;;;;5032428;28;20480;-80
2021/05/21 12:24:43;;;;;;;0.67;0.60;;;15.50;99.90;;;;;;5028775;28;20467;-78
2021/05/21 12:27:11;;;;;;;0.60;0.50;;;15.50;99.90;;;;;;5022162;28;20550;-79
2021/05/21 12:29:41;;;;;;;2.53;0.80;;;15.40;99.90;;;;;;5028448;28;20460;-78
2021/05/21 12:32:10;;;;;;;1.40;0.60;;;15.40;99.90;;;;;;5024005;28;20521;-79
2021/05/21 12:34:38;;;;;;;0.60;0.60;;;15.40;99.90;;;;;;5028938;28;20465;-79
2021/05/21 12:37:06;;;;;;;2.00;1.40;;;15.20;99.90;;;;;;5029826;28;20454;-78
2021/05/21 12:39:39;;;;;;;0.70;0.60;;;15.40;99.90;;;;;;5023911;28;20471;-79
2021/05/21 12:42:07;;;;;;;1.03;0.60;;;15.30;99.90;;;;;;5029105;28;20492;-77
2021/05/21 12:44:43;;;;;;;0.90;0.70;;;15.30;99.90;;;;;;5031817;28;20458;-79
2021/05/21 12:47:11;;;;;;;0.77;0.60;;;15.30;99.90;;;;;;5030022;28;20473;-79
2021/05/21 12:49:39;;;;;;;1.03;0.60;;;15.30;99.90;;;;;;5030333;28;20916;-78
2021/05/21 12:52:07;;;;;;;0.97;0.70;;;15.20;99.90;;;;;;5030236;28;20487;-79
2021/05/21 12:54:37;;;;;;;0.60;0.57;;;15.00;99.90;;;;;;5030680;28;20461;-78
2021/05/21 12:57:06;;;;;;;0.60;0.53;;;15.00;99.90;;;;;;5029322;28;20449;-80
2021/05/21 12:59:36;;;;;;;0.60;0.60;;;15.00;99.90;;;;;;5030046;28;20457;-79